createdAt,value
2016-09-24T00:00:45.333Z,99.99
2016-09-24T00:01:45.427Z,99.99
2016-09-24T00:02:45.435Z,99.99
2016-09-24T00:03:45.440Z,99.99
2016-09-24T00:04:45.465Z,99.99
2016-09-24T00:05:45.312Z,99.99
2016-09-24T00:06:45.438Z,99.99
2016-09-24T00:07:45.386Z,99.99
2016-09-24T00:08:45.450Z,99.99
2016-09-24T00:09:45.343Z,99.99
2016-09-24T00:10:45.367Z,99.99
2016-09-24T00:11:45.360Z,99.99
2016-09-24T00:12:45.364Z,99.99
2016-09-24T00:13:45.454Z,99.99
2016-09-24T00:14:45.371Z,99.99
2016-09-24T00:15:45.328Z,99.99
2016-09-24T00:16:45.917Z,99.99
2016-09-24T00:17:45.494Z,99.99
2016-09-24T00:18:45.473Z,99.99
2016-09-24T00:19:45.477Z,99.99
2016-09-24T00:20:45.623Z,99.99
2016-09-24T00:21:46.255Z,99.99
2016-09-24T00:22:45.380Z,99.99
2016-09-24T00:23:45.360Z,99.99
2016-09-24T00:24:45.500Z,99.99
2016-09-24T00:25:45.499Z,99.99
2016-09-24T00:26:45.362Z,99.99
2016-09-24T00:27:45.462Z,99.99
2016-09-24T00:28:45.511Z,99.99
2016-09-24T00:29:45.367Z,99.99
2016-09-24T00:30:45.497Z,99.99
2016-09-24T00:31:45.993Z,99.99
2016-09-24T00:32:45.374Z,99.99
2016-09-24T00:33:45.516Z,99.99
2016-09-24T00:34:45.417Z,99.99
2016-09-24T00:35:45.517Z,99.99
2016-09-24T00:36:45.442Z,99.99
2016-09-24T00:37:45.430Z,99.99
2016-09-24T00:38:45.390Z,99.99
2016-09-24T00:39:45.437Z,99.99
2016-09-24T00:40:45.533Z,99.99
2016-09-24T00:41:45.554Z,99.99
2016-09-24T00:42:45.542Z,99.99
2016-09-24T00:43:45.478Z,99.99
2016-09-24T00:44:45.553Z,99.99
2016-09-24T00:45:45.430Z,99.99
2016-09-24T00:46:45.421Z,99.99
2016-09-24T00:47:46.706Z,99.99
2016-09-24T00:48:45.560Z,99.99
2016-09-24T00:49:45.456Z,99.99
2016-09-24T00:50:45.474Z,99.99
2016-09-24T00:51:45.422Z,99.99
2016-09-24T00:52:45.459Z,99.99
2016-09-24T00:53:45.576Z,99.99
2016-09-24T00:54:45.484Z,99.99
2016-09-24T00:55:45.575Z,99.99
2016-09-24T00:56:45.577Z,99.99
2016-09-24T00:57:45.488Z,99.99
2016-09-24T00:58:45.584Z,99.99
2016-09-24T00:59:45.459Z,99.99
2016-09-24T01:00:45.595Z,99.99
2016-09-24T01:01:45.503Z,99.99
2016-09-24T01:02:45.459Z,99.99
2016-09-24T01:03:45.598Z,99.99
2016-09-24T01:04:45.503Z,99.99
2016-09-24T01:05:45.507Z,99.99
2016-09-24T01:06:45.609Z,99.99
2016-09-24T01:07:45.506Z,99.99
2016-09-24T01:08:45.515Z,99.99
2016-09-24T01:09:45.626Z,99.99
2016-09-24T01:10:45.494Z,99.99
2016-09-24T01:11:45.630Z,99.99
2016-09-24T01:12:45.628Z,99.99
2016-09-24T01:13:45.626Z,99.99
2016-09-24T01:14:45.632Z,99.99
2016-09-24T01:15:45.630Z,99.99
2016-09-24T01:16:45.541Z,99.99
2016-09-24T01:17:45.501Z,99.99
2016-09-24T01:18:46.225Z,99.99
2016-09-24T01:19:45.508Z,99.99
2016-09-24T01:20:45.697Z,99.99
2016-09-24T01:21:45.578Z,99.99
2016-09-24T01:22:45.520Z,99.99
2016-09-24T01:23:45.566Z,99.99
2016-09-24T01:24:45.675Z,99.99
2016-09-24T01:25:45.529Z,99.99
2016-09-24T01:26:45.527Z,99.99
2016-09-24T01:27:45.576Z,99.99
2016-09-24T01:28:45.539Z,99.99
2016-09-24T01:29:45.551Z,99.99
2016-09-24T01:30:45.539Z,99.99
2016-09-24T01:31:45.678Z,99.99
2016-09-24T01:32:45.549Z,99.99
2016-09-24T01:33:45.622Z,99.99
2016-09-24T01:34:45.552Z,99.99
2016-09-24T01:35:45.569Z,99.99
2016-09-24T01:36:45.558Z,99.99
2016-09-24T01:37:45.598Z,99.99
2016-09-24T01:38:45.607Z,99.99
2016-09-24T01:39:45.707Z,99.99
2016-09-24T01:40:45.619Z,99.99
2016-09-24T01:41:45.607Z,99.99
2016-09-24T01:42:45.587Z,99.99
2016-09-24T01:43:45.592Z,99.99
2016-09-24T01:44:45.724Z,99.99
2016-09-24T01:45:45.747Z,99.99
2016-09-24T01:46:45.626Z,99.99
2016-09-24T01:47:45.641Z,99.99
2016-09-24T01:48:45.592Z,99.99
2016-09-24T01:49:45.636Z,99.99
2016-09-24T01:50:45.878Z,99.99
2016-09-24T01:51:45.743Z,99.99
2016-09-24T01:52:45.603Z,99.99
2016-09-24T01:53:45.744Z,99.99
2016-09-24T01:54:45.659Z,99.99
2016-09-24T01:55:45.758Z,99.99
2016-09-24T01:56:45.618Z,99.99
2016-09-24T01:57:45.661Z,99.99
2016-09-24T01:58:45.764Z,99.99
2016-09-24T01:59:45.794Z,99.99
2016-09-24T02:00:45.622Z,99.99
2016-09-24T02:01:45.662Z,99.99
2016-09-24T02:02:45.762Z,99.99
2016-09-24T02:03:45.774Z,99.99
2016-09-24T02:04:45.769Z,99.99
2016-09-24T02:05:45.786Z,99.99
2016-09-24T02:06:45.655Z,99.99
2016-09-24T02:07:45.703Z,99.99
2016-09-24T02:08:45.801Z,99.99
2016-09-24T02:09:45.654Z,99.99
2016-09-24T02:10:45.689Z,99.99
2016-09-24T02:11:45.761Z,99.99
2016-09-24T02:12:45.795Z,99.99
2016-09-24T02:13:45.797Z,99.99
2016-09-24T02:14:45.664Z,99.99
2016-09-24T02:15:45.712Z,99.99
2016-09-24T02:16:45.804Z,99.99
2016-09-24T02:17:45.703Z,99.99
2016-09-24T02:18:45.816Z,99.99
2016-09-24T02:19:45.734Z,99.99
2016-09-24T02:20:45.684Z,99.99
2016-09-24T02:21:45.832Z,99.99
2016-09-24T02:22:45.824Z,99.99
2016-09-24T02:23:45.824Z,99.99
2016-09-24T02:24:45.697Z,99.99
2016-09-24T02:25:45.974Z,99.99
2016-09-24T02:26:45.723Z,99.99
2016-09-24T02:27:45.841Z,99.99
2016-09-24T02:28:45.727Z,99.99
2016-09-24T02:29:46.388Z,99.99
2016-09-24T02:30:45.848Z,99.99
2016-09-24T02:31:45.744Z,99.99
2016-09-24T02:32:45.873Z,99.99
2016-09-24T02:33:45.739Z,99.99
2016-09-24T02:34:45.863Z,99.99
2016-09-24T02:35:45.857Z,99.99
2016-09-24T02:36:45.870Z,99.99
2016-09-24T02:37:45.869Z,99.99
2016-09-24T02:38:45.888Z,99.99
2016-09-24T02:39:45.770Z,99.99
2016-09-24T02:40:45.851Z,99.99
2016-09-24T02:41:45.872Z,99.99
2016-09-24T02:42:45.790Z,99.99
2016-09-24T02:43:45.799Z,99.99
2016-09-24T02:44:45.779Z,99.99
2016-09-24T02:45:45.890Z,99.99
2016-09-24T02:46:45.829Z,99.99
2016-09-24T02:47:45.796Z,99.99
2016-09-24T02:48:46.204Z,99.99
2016-09-24T02:49:45.923Z,99.99
2016-09-24T02:50:45.764Z,99.99
2016-09-24T02:51:45.799Z,99.99
2016-09-24T02:52:45.910Z,99.99
2016-09-24T02:53:45.816Z,99.99
2016-09-24T02:54:45.824Z,99.99
2016-09-24T02:55:45.954Z,99.99
2016-09-24T02:56:45.922Z,99.99
2016-09-24T02:57:45.820Z,99.99
2016-09-24T02:58:45.817Z,99.99
2016-09-24T02:59:45.836Z,99.99
2016-09-24T03:00:45.934Z,99.99
2016-09-24T03:01:45.845Z,99.99
2016-09-24T03:02:45.934Z,99.99
2016-09-24T03:03:45.945Z,99.99
2016-09-24T03:04:45.850Z,99.99
2016-09-24T03:05:45.875Z,99.99
2016-09-24T03:06:45.836Z,99.99
2016-09-24T03:07:46.088Z,99.99
2016-09-24T03:08:45.873Z,99.99
2016-09-24T03:09:45.954Z,99.99
2016-09-24T03:10:45.825Z,99.99
2016-09-24T03:11:45.960Z,99.99
2016-09-24T03:12:46.009Z,99.99
2016-09-24T03:13:45.967Z,99.99
2016-09-24T03:14:45.991Z,99.99
2016-09-24T03:15:45.990Z,99.99
2016-09-24T03:16:45.877Z,99.99
2016-09-24T03:17:45.979Z,99.99
2016-09-24T03:18:46.959Z,99.99
2016-09-24T03:19:45.899Z,99.99
2016-09-24T03:20:45.986Z,99.99
2016-09-24T03:21:46.153Z,99.99
2016-09-24T03:22:45.989Z,99.99
2016-09-24T03:23:46.004Z,99.99
2016-09-24T03:24:45.892Z,99.99
2016-09-24T03:25:46.517Z,99.99
2016-09-24T03:26:46.007Z,99.99
2016-09-24T03:27:46.008Z,99.99
2016-09-24T03:28:46.013Z,99.99
2016-09-24T03:29:46.016Z,99.99
2016-09-24T03:30:45.883Z,99.99
2016-09-24T03:31:46.019Z,99.99
2016-09-24T03:32:46.032Z,99.99
2016-09-24T03:33:45.883Z,99.99
2016-09-24T03:34:45.936Z,99.99
2016-09-24T03:35:45.898Z,99.99
2016-09-24T03:36:46.246Z,99.99
2016-09-24T03:37:46.102Z,99.99
2016-09-24T03:38:46.034Z,99.99
2016-09-24T03:39:46.041Z,99.99
2016-09-24T03:40:46.056Z,99.99
2016-09-24T03:41:45.956Z,99.99
2016-09-24T03:42:46.044Z,99.99
2016-09-24T03:43:47.103Z,99.99
2016-09-24T03:44:46.056Z,99.99
2016-09-24T03:45:46.093Z,99.99
2016-09-24T03:46:45.963Z,99.99
2016-09-24T03:47:46.066Z,99.99
2016-09-24T03:48:46.083Z,99.99
2016-09-24T03:49:46.073Z,99.99
2016-09-24T03:50:45.983Z,99.99
2016-09-24T03:51:46.075Z,99.99
2016-09-24T03:52:46.215Z,99.99
2016-09-24T03:53:45.996Z,99.99
2016-09-24T03:54:46.079Z,99.99
2016-09-24T03:55:45.949Z,99.99
2016-09-24T03:56:46.086Z,99.99
2016-09-24T03:57:46.103Z,99.99
2016-09-24T03:58:46.091Z,99.99
2016-09-24T03:59:46.093Z,99.99
2016-09-24T04:00:46.097Z,99.99
2016-09-24T04:01:45.968Z,99.99
2016-09-24T04:02:46.018Z,99.99
2016-09-24T04:03:45.997Z,99.99
2016-09-24T04:04:45.974Z,99.99
2016-09-24T04:05:46.110Z,99.99
2016-09-24T04:06:46.112Z,99.99
2016-09-24T04:07:46.176Z,99.99
2016-09-24T04:08:46.114Z,99.99
2016-09-24T04:09:46.004Z,99.99
2016-09-24T04:10:45.987Z,99.99
2016-09-24T04:11:46.129Z,99.99
2016-09-24T04:12:46.003Z,99.99
2016-09-24T04:13:46.142Z,99.99
2016-09-24T04:14:46.136Z,99.99
2016-09-24T04:15:46.152Z,99.99
2016-09-24T04:16:46.143Z,99.99
2016-09-24T04:17:46.052Z,99.99
2016-09-24T04:18:46.060Z,99.99
2016-09-24T04:19:46.082Z,99.99
2016-09-24T04:20:46.160Z,99.99
2016-09-24T04:21:46.153Z,99.99
2016-09-24T04:22:46.155Z,99.99
2016-09-24T04:23:46.026Z,99.99
2016-09-24T04:24:46.049Z,99.99
2016-09-24T04:25:46.099Z,99.99
2016-09-24T04:26:46.033Z,99.99
2016-09-24T04:27:46.178Z,99.99
2016-09-24T04:28:46.179Z,99.99
2016-09-24T04:29:46.187Z,99.99
2016-09-24T04:30:46.194Z,99.99
2016-09-24T04:31:46.081Z,99.99
2016-09-24T04:32:46.049Z,99.99
2016-09-24T04:33:46.186Z,99.99
2016-09-24T04:34:46.060Z,99.99
2016-09-24T04:35:46.056Z,99.99
2016-09-24T04:36:46.066Z,99.99
2016-09-24T04:37:46.195Z,99.99
2016-09-24T04:38:46.102Z,99.99
2016-09-24T04:39:46.069Z,99.99
2016-09-24T04:40:46.215Z,99.99
2016-09-24T04:41:46.232Z,99.99
2016-09-24T04:42:46.217Z,99.99
2016-09-24T04:43:46.220Z,99.99
2016-09-24T04:44:46.216Z,99.99
2016-09-24T04:45:46.115Z,99.99
2016-09-24T04:46:46.258Z,99.99
2016-09-24T04:47:46.122Z,99.99
2016-09-24T04:48:46.241Z,99.99
2016-09-24T04:49:46.100Z,99.99
2016-09-24T04:50:46.104Z,99.99
2016-09-24T04:51:46.105Z,99.99
2016-09-24T04:52:46.241Z,99.99
2016-09-24T04:53:46.145Z,99.99
2016-09-24T04:54:46.247Z,99.99
2016-09-24T04:55:46.107Z,99.99
2016-09-24T04:56:46.250Z,99.99
2016-09-24T04:57:46.277Z,99.99
2016-09-24T04:58:46.265Z,99.99
2016-09-24T04:59:46.123Z,99.99
2016-09-24T05:00:46.310Z,99.99
2016-09-24T05:01:46.334Z,99.99
2016-09-24T05:02:46.187Z,99.99
2016-09-24T05:03:46.143Z,99.99
2016-09-24T05:04:46.280Z,99.99
2016-09-24T05:05:46.171Z,99.99
2016-09-24T05:06:46.149Z,99.99
2016-09-24T05:07:46.151Z,99.99
2016-09-24T05:08:46.297Z,99.99
2016-09-24T05:09:46.351Z,99.99
2016-09-24T05:10:46.148Z,99.99
2016-09-24T05:11:46.300Z,99.99
2016-09-24T05:12:46.306Z,99.99
2016-09-24T05:13:46.329Z,99.99
2016-09-24T05:14:46.314Z,99.99
2016-09-24T05:15:46.209Z,99.99
2016-09-24T05:16:46.308Z,99.99
2016-09-24T05:17:46.308Z,99.99
2016-09-24T05:18:46.190Z,99.99
2016-09-24T05:19:46.319Z,99.99
2016-09-24T05:20:46.323Z,99.99
2016-09-24T05:21:46.315Z,99.99
2016-09-24T05:22:46.187Z,99.99
2016-09-24T05:23:46.213Z,99.99
2016-09-24T05:24:46.321Z,99.99
2016-09-24T05:25:46.330Z,99.99
2016-09-24T05:26:46.340Z,99.99
2016-09-24T05:27:46.241Z,99.99
2016-09-24T05:28:46.340Z,99.99
2016-09-24T05:29:46.351Z,99.99
2016-09-24T05:30:46.255Z,99.99
2016-09-24T05:31:46.367Z,99.99
2016-09-24T05:32:46.220Z,99.99
2016-09-24T05:33:46.236Z,99.99
2016-09-24T05:34:46.211Z,99.99
2016-09-24T05:35:46.380Z,99.99
2016-09-24T05:36:46.358Z,99.99
2016-09-24T05:37:46.352Z,99.99
2016-09-24T05:38:46.360Z,99.99
2016-09-24T05:39:46.239Z,99.99
2016-09-24T05:40:46.376Z,99.99
2016-09-24T05:41:46.378Z,99.99
2016-09-24T05:42:46.373Z,99.99
2016-09-24T05:43:46.372Z,99.99
2016-09-24T05:44:46.379Z,99.99
2016-09-24T05:45:46.402Z,99.99
2016-09-24T05:46:46.391Z,99.99
2016-09-24T05:47:46.392Z,99.99
2016-09-24T05:48:46.388Z,99.99
2016-09-24T05:49:46.265Z,99.99
2016-09-24T05:50:46.285Z,99.99
2016-09-24T05:51:46.400Z,99.99
2016-09-24T05:52:46.269Z,99.99
2016-09-24T05:53:46.271Z,99.99
2016-09-24T05:54:46.287Z,99.99
2016-09-24T05:55:46.285Z,99.99
2016-09-24T05:56:46.425Z,99.99
2016-09-24T05:57:46.367Z,99.99
2016-09-24T05:58:46.315Z,99.99
2016-09-24T05:59:46.429Z,99.99
2016-09-24T06:00:46.332Z,99.99
2016-09-24T06:01:46.318Z,99.99
2016-09-24T06:02:46.346Z,99.99
2016-09-24T06:03:46.432Z,99.99
2016-09-24T06:04:46.312Z,99.99
2016-09-24T06:05:46.312Z,99.99
2016-09-24T06:06:46.349Z,99.99
2016-09-24T06:07:46.304Z,99.99
2016-09-24T06:08:46.311Z,99.99
2016-09-24T06:09:46.339Z,99.99
2016-09-24T06:10:46.348Z,99.99
2016-09-24T06:11:46.533Z,99.99
2016-09-24T06:12:46.320Z,99.99
2016-09-24T06:13:46.531Z,99.99
2016-09-24T06:14:46.471Z,99.99
2016-09-24T06:15:46.460Z,99.99
2016-09-24T06:16:46.488Z,99.99
2016-09-24T06:17:46.417Z,99.99
2016-09-24T06:18:46.478Z,99.99
2016-09-24T06:19:46.473Z,99.99
2016-09-24T06:20:46.373Z,99.99
2016-09-24T06:21:46.520Z,99.99
2016-09-24T06:22:46.649Z,99.99
2016-09-24T06:23:46.496Z,99.99
2016-09-24T06:24:46.575Z,99.99
2016-09-24T06:25:46.499Z,99.99
2016-09-24T06:26:46.390Z,99.99
2016-09-24T06:27:46.502Z,99.99
2016-09-24T06:28:46.518Z,99.99
2016-09-24T06:29:46.367Z,99.99
2016-09-24T06:30:46.504Z,99.99
2016-09-24T06:31:46.409Z,99.99
2016-09-24T06:32:46.543Z,99.99
2016-09-24T06:33:46.539Z,99.99
2016-09-24T06:34:46.667Z,99.99
2016-09-24T06:35:46.523Z,99.99
2016-09-24T06:36:46.386Z,99.99
2016-09-24T06:37:46.393Z,99.99
2016-09-24T06:38:46.393Z,99.99
2016-09-24T06:39:46.750Z,99.99
2016-09-24T06:40:46.552Z,99.99
2016-09-24T06:41:46.857Z,99.99
2016-09-24T06:42:46.445Z,99.99
2016-09-24T06:43:46.434Z,99.99
2016-09-24T06:44:46.556Z,99.99
2016-09-24T06:45:46.411Z,99.99
2016-09-24T06:46:46.549Z,99.99
2016-09-24T06:47:46.700Z,99.99
2016-09-24T06:48:46.449Z,99.99
2016-09-24T06:49:46.487Z,99.99
2016-09-24T06:50:46.454Z,99.99
2016-09-24T06:51:46.468Z,99.99
2016-09-24T06:52:46.434Z,99.99
2016-09-24T06:53:46.570Z,99.99
2016-09-24T06:54:46.480Z,99.99
2016-09-24T06:55:46.472Z,99.99
2016-09-24T06:56:46.592Z,99.99
2016-09-24T06:57:46.583Z,99.99
2016-09-24T06:58:46.447Z,99.99
2016-09-24T06:59:46.587Z,99.99
2016-09-24T07:00:46.487Z,99.99
2016-09-24T07:01:46.463Z,99.99
2016-09-24T07:02:46.500Z,99.99
2016-09-24T07:03:46.453Z,99.99
2016-09-24T07:04:46.605Z,99.99
2016-09-24T07:05:46.789Z,99.99
2016-09-24T07:06:46.513Z,99.99
2016-09-24T07:07:46.476Z,99.99
2016-09-24T07:08:46.477Z,99.99
2016-09-24T07:09:46.626Z,99.99
2016-09-24T07:10:46.622Z,99.99
2016-09-24T07:11:46.485Z,99.99
2016-09-24T07:12:46.486Z,99.99
2016-09-24T07:13:46.494Z,99.99
2016-09-24T07:14:46.566Z,99.99
2016-09-24T07:15:46.646Z,99.99
2016-09-24T07:16:46.753Z,99.99
2016-09-24T07:17:46.519Z,99.99
2016-09-24T07:18:46.510Z,99.99
2016-09-24T07:19:46.523Z,99.99
2016-09-24T07:20:46.550Z,99.99
2016-09-24T07:21:46.581Z,99.99
2016-09-24T07:22:46.517Z,99.99
2016-09-24T07:23:46.563Z,99.99
2016-09-24T07:24:46.514Z,99.99
2016-09-24T07:25:47.814Z,99.99
2016-09-24T07:26:46.538Z,99.99
2016-09-24T07:27:46.672Z,99.99
2016-09-24T07:28:46.684Z,99.99
2016-09-24T07:29:46.687Z,99.99
2016-09-24T07:30:46.555Z,99.99
2016-09-24T07:31:46.549Z,99.99
2016-09-24T07:32:46.703Z,99.99
2016-09-24T07:33:46.591Z,99.99
2016-09-24T07:34:46.708Z,99.99
2016-09-24T07:35:46.586Z,99.99
2016-09-24T07:36:46.694Z,99.99
2016-09-24T07:37:46.601Z,99.99
2016-09-24T07:38:46.711Z,99.99
2016-09-24T07:39:46.584Z,99.99
2016-09-24T07:40:46.578Z,99.99
2016-09-24T07:41:46.602Z,99.24
2016-09-24T07:42:46.748Z,98.81
2016-09-24T07:43:46.619Z,97.75
2016-09-24T07:44:46.592Z,96.8
2016-09-24T07:45:46.733Z,97.04
2016-09-24T07:46:46.640Z,95.65
2016-09-24T07:47:46.601Z,95.17
2016-09-24T07:48:46.602Z,94.98
2016-09-24T07:49:46.793Z,94.69
2016-09-24T07:50:46.741Z,95.7
2016-09-24T07:51:46.747Z,95.03
2016-09-24T07:52:46.613Z,94.59
2016-09-24T07:53:46.792Z,95.36
2016-09-24T07:54:46.655Z,95.7
2016-09-24T07:55:46.623Z,95.12
2016-09-24T07:56:46.758Z,94.5
2016-09-24T07:57:46.758Z,94.02
2016-09-24T07:58:46.636Z,93.68
2016-09-24T07:59:46.779Z,94.17
2016-09-24T08:00:46.795Z,93.73
2016-09-24T08:01:46.682Z,93.83
2016-09-24T08:02:46.647Z,93.3
2016-09-24T08:03:46.792Z,92.24
2016-09-24T08:04:46.644Z,91.33
2016-09-24T08:05:46.811Z,90.99
2016-09-24T08:06:46.800Z,90.32
2016-09-24T08:07:46.798Z,90.37
2016-09-24T08:08:46.714Z,90.13
2016-09-24T08:09:46.825Z,90.99
2016-09-24T08:10:46.802Z,93.01
2016-09-24T08:11:46.677Z,94.26
2016-09-24T08:12:46.711Z,94.02
2016-09-24T08:13:46.854Z,94.26
2016-09-24T08:14:46.817Z,93.49
2016-09-24T08:15:46.821Z,93.01
2016-09-24T08:16:46.691Z,91.42
2016-09-24T08:17:46.734Z,90.85
2016-09-24T08:18:46.831Z,90.13
2016-09-24T08:19:46.826Z,89.55
2016-09-24T08:20:46.706Z,89.26
2016-09-24T08:21:46.709Z,88.83
2016-09-24T08:22:46.836Z,88.83
2016-09-24T08:23:46.709Z,88.16
2016-09-24T08:24:46.775Z,87.43
2016-09-24T08:25:46.764Z,87.05
2016-09-24T08:26:46.770Z,87.09
2016-09-24T08:27:46.732Z,87.58
2016-09-24T08:28:46.724Z,87.87
2016-09-24T08:29:46.776Z,87.34
2016-09-24T08:30:46.726Z,87.38
2016-09-24T08:31:46.864Z,87.62
2016-09-24T08:32:46.738Z,87.34
2016-09-24T08:33:46.756Z,87.62
2016-09-24T08:34:46.780Z,87.62
2016-09-24T08:35:46.743Z,87.62
2016-09-24T08:36:46.901Z,87.15
2016-09-24T08:37:46.890Z,88.87
2016-09-24T08:38:46.893Z,89.5
2016-09-24T08:39:46.906Z,90.52
2016-09-24T08:40:46.774Z,90.08
2016-09-24T08:41:46.915Z,89.98
2016-09-24T08:42:46.959Z,89.31
2016-09-24T08:43:47.416Z,88.73
2016-09-24T08:44:46.926Z,89.22
2016-09-24T08:45:46.906Z,88.1
2016-09-24T08:46:46.916Z,87.67
2016-09-24T08:47:46.813Z,86.9
2016-09-24T08:48:46.830Z,86.32
2016-09-24T08:49:46.933Z,85.4
2016-09-24T08:50:46.928Z,84.48
2016-09-24T08:51:46.929Z,85.54
2016-09-24T08:52:46.792Z,86.32
2016-09-24T08:53:46.930Z,88.1
2016-09-24T08:54:46.838Z,88.49
2016-09-24T08:55:46.790Z,88.49
2016-09-24T08:56:46.943Z,88.3
2016-09-24T08:57:46.959Z,88.87
2016-09-24T08:58:46.815Z,90.12
2016-09-24T08:59:46.813Z,89.6
2016-09-24T09:00:46.877Z,86.8
2016-09-24T09:01:46.812Z,85.78
2016-09-24T09:02:46.867Z,84.77
2016-09-24T09:03:46.958Z,84.58
2016-09-24T09:04:46.837Z,83.72
2016-09-24T09:05:46.964Z,84.39
2016-09-24T09:06:46.863Z,84.87
2016-09-24T09:07:47.009Z,85.74
2016-09-24T09:08:46.980Z,86.85
2016-09-24T09:09:46.988Z,87.04
2016-09-24T09:10:46.995Z,86.36
2016-09-24T09:11:46.851Z,85.6
2016-09-24T09:12:46.869Z,85.78
2016-09-24T09:13:46.896Z,84.97
2016-09-24T09:14:46.993Z,84.87
2016-09-24T09:15:46.923Z,84.39
2016-09-24T09:16:46.904Z,83.47
2016-09-24T09:17:47.013Z,82.89
2016-09-24T09:18:47.015Z,83.08
2016-09-24T09:19:46.913Z,81.96
2016-09-24T09:20:46.889Z,82.35
2016-09-24T09:21:46.883Z,83.31
2016-09-24T09:22:47.037Z,85.3
2016-09-24T09:23:47.028Z,85.98
2016-09-24T09:24:46.890Z,84.77
2016-09-24T09:25:46.934Z,83.18
2016-09-24T09:26:46.896Z,82.93
2016-09-24T09:27:46.934Z,81.77
2016-09-24T09:28:46.932Z,81.14
2016-09-24T09:29:47.062Z,79.98
2016-09-24T09:30:47.046Z,78.42
2016-09-24T09:31:46.955Z,77.88
2016-09-24T09:32:47.044Z,78.36
2016-09-24T09:33:46.913Z,80.22
2016-09-24T09:34:47.083Z,81.48
2016-09-24T09:35:47.064Z,82.39
2016-09-24T09:36:47.070Z,82.41
2016-09-24T09:37:46.979Z,82.01
2016-09-24T09:38:47.104Z,81.68
2016-09-24T09:39:47.067Z,81.33
2016-09-24T09:40:46.939Z,80.46
2016-09-24T09:41:47.072Z,80.02
2016-09-24T09:42:47.084Z,80.06
2016-09-24T09:43:47.156Z,80.69
2016-09-24T09:44:47.001Z,80.37
2016-09-24T09:45:46.969Z,79.93
2016-09-24T09:46:46.997Z,79.74
2016-09-24T09:47:46.961Z,80.6
2016-09-24T09:48:47.107Z,79.68
2016-09-24T09:49:47.001Z,79.83
2016-09-24T09:50:47.112Z,79.68
2016-09-24T09:51:47.099Z,79.83
2016-09-24T09:52:47.111Z,80.22
2016-09-24T09:53:47.112Z,78.91
2016-09-24T09:54:47.123Z,78.33
2016-09-24T09:55:46.982Z,76.92
2016-09-24T09:56:47.122Z,78.41
2016-09-24T09:57:47.022Z,78.03
2016-09-24T09:58:46.989Z,78.42
2016-09-24T09:59:47.137Z,79.25
2016-09-24T10:00:47.004Z,78.77
2016-09-24T10:01:47.155Z,77.3
2016-09-24T10:02:47.144Z,78.02
2016-09-24T10:03:47.004Z,78.13
2016-09-24T10:04:47.150Z,76.72
2016-09-24T10:05:47.158Z,76.37
2016-09-24T10:06:47.157Z,75.89
2016-09-24T10:07:47.166Z,76.12
2016-09-24T10:08:47.160Z,76.57
2016-09-24T10:09:47.423Z,77.11
2016-09-24T10:10:47.162Z,76.72
2016-09-24T10:11:47.164Z,76.57
2016-09-24T10:12:47.163Z,75.89
2016-09-24T10:13:47.175Z,75.31
2016-09-24T10:14:47.040Z,75.12
2016-09-24T10:15:47.036Z,75.79
2016-09-24T10:16:47.076Z,75.67
2016-09-24T10:17:47.053Z,73.77
2016-09-24T10:18:47.051Z,72.84
2016-09-24T10:19:47.190Z,72.45
2016-09-24T10:20:47.053Z,71.75
2016-09-24T10:21:47.051Z,73.39
2016-09-24T10:22:47.194Z,73.03
2016-09-24T10:23:47.103Z,72.2
2016-09-24T10:24:47.067Z,70.78
2016-09-24T10:25:47.099Z,69.11
2016-09-24T10:26:47.105Z,69.43
2016-09-24T10:27:47.213Z,70.4
2016-09-24T10:28:47.220Z,69.92
2016-09-24T10:29:47.221Z,68.85
2016-09-24T10:30:47.110Z,68.49
2016-09-24T10:31:47.216Z,68.4
2016-09-24T10:32:47.135Z,68.63
2016-09-24T10:33:47.251Z,69.56
2016-09-24T10:34:47.231Z,69.24
2016-09-24T10:35:47.135Z,69.08
2016-09-24T10:36:47.237Z,69.08
2016-09-24T10:37:47.147Z,68.33
2016-09-24T10:38:47.253Z,67.14
2016-09-24T10:39:47.100Z,67.01
2016-09-24T10:40:47.148Z,66.27
2016-09-24T10:41:47.122Z,66.6
2016-09-24T10:42:47.263Z,66.3
2016-09-24T10:43:47.122Z,66.11
2016-09-24T10:44:47.259Z,65.37
2016-09-24T10:45:47.127Z,66.34
2016-09-24T10:46:47.163Z,66.3
2016-09-24T10:47:47.169Z,66.02
2016-09-24T10:48:47.140Z,66.69
2016-09-24T10:49:47.198Z,67.53
2016-09-24T10:50:47.207Z,67.82
2016-09-24T10:51:47.187Z,68.72
2016-09-24T10:52:47.148Z,68.04
2016-09-24T10:53:47.152Z,69.04
2016-09-24T10:54:47.194Z,69.07
2016-09-24T10:55:47.292Z,68.27
2016-09-24T10:56:47.303Z,66.82
2016-09-24T10:57:47.310Z,67.24
2016-09-24T10:58:47.302Z,67.98
2016-09-24T10:59:47.209Z,69.46
2016-09-24T11:00:47.317Z,69.23
2016-09-24T11:01:47.183Z,68.72
2016-09-24T11:02:47.173Z,68.43
2016-09-24T11:03:47.183Z,68.62
2016-09-24T11:04:47.313Z,67.3
2016-09-24T11:05:47.340Z,69.3
2016-09-24T11:06:47.221Z,69.17
2016-09-24T11:07:47.231Z,70.62
2016-09-24T11:08:47.323Z,69.81
2016-09-24T11:09:47.326Z,70.2
2016-09-24T11:10:47.326Z,69.9
2016-09-24T11:11:47.213Z,69.26
2016-09-24T11:12:47.241Z,68.14
2016-09-24T11:13:47.336Z,66.91
2016-09-24T11:14:47.341Z,66.82
2016-09-24T11:15:47.345Z,67.75
2016-09-24T11:16:47.254Z,66.88
2016-09-24T11:17:47.251Z,66.17
2016-09-24T11:18:47.356Z,66.37
2016-09-24T11:19:47.359Z,66.08
2016-09-24T11:20:47.376Z,66.95
2016-09-24T11:21:47.402Z,67.94
2016-09-24T11:22:47.236Z,67.08
2016-09-24T11:23:47.382Z,67.69
2016-09-24T11:24:47.387Z,66.88
2016-09-24T11:25:47.387Z,66.72
2016-09-24T11:26:47.375Z,66.91
2016-09-24T11:27:47.246Z,67.82
2016-09-24T11:28:47.391Z,68.59
2016-09-24T11:29:47.251Z,68.1
2016-09-24T11:30:47.300Z,67.27
2016-09-24T11:31:47.270Z,67.14
2016-09-24T11:32:47.302Z,68.01
2016-09-24T11:33:47.412Z,68.17
2016-09-24T11:34:47.282Z,68.59
2016-09-24T11:35:47.407Z,67.82
2016-09-24T11:36:47.411Z,68.14
2016-09-24T11:37:47.347Z,67.36
2016-09-24T11:38:47.349Z,67.11
2016-09-24T11:39:47.282Z,67.49
2016-09-24T11:40:47.422Z,67.01
2016-09-24T11:41:47.434Z,66.63
2016-09-24T11:42:47.433Z,67.11
2016-09-24T11:43:47.447Z,66.59
2016-09-24T11:44:47.444Z,65.95
2016-09-24T11:45:47.305Z,65.88
2016-09-24T11:46:47.353Z,66.17
2016-09-24T11:47:47.309Z,67.11
2016-09-24T11:48:47.350Z,67.36
2016-09-24T11:49:47.464Z,68.78
2016-09-24T11:50:47.320Z,68.78
2016-09-24T11:51:47.465Z,68.98
2016-09-24T11:52:47.467Z,69.87
2016-09-24T11:53:47.503Z,69.78
2016-09-24T11:54:47.337Z,69.9
2016-09-24T11:55:47.503Z,69.2
2016-09-24T11:56:47.337Z,69.2
2016-09-24T11:57:47.373Z,69.39
2016-09-24T11:58:47.347Z,69.32
2016-09-24T11:59:47.492Z,68.01
2016-09-24T12:00:47.490Z,67.43
2016-09-24T12:01:47.347Z,66.88
2016-09-24T12:02:47.552Z,66.24
2016-09-24T12:03:47.397Z,65.59
2016-09-24T12:04:47.503Z,65.85
2016-09-24T12:05:47.422Z,66.14
2016-09-24T12:06:47.502Z,66.24
2016-09-24T12:07:47.411Z,66.72
2016-09-24T12:08:47.404Z,67.36
2016-09-24T12:09:47.533Z,66.88
2016-09-24T12:10:47.521Z,65.17
2016-09-24T12:11:47.418Z,65.34
2016-09-24T12:12:47.523Z,65.75
2016-09-24T12:13:47.423Z,63.47
2016-09-24T12:14:47.534Z,62.47
2016-09-24T12:15:47.450Z,61.63
2016-09-24T12:16:47.536Z,60.66
2016-09-24T12:17:47.534Z,61.08
2016-09-24T12:18:47.545Z,60.82
2016-09-24T12:19:47.543Z,61.46
2016-09-24T12:20:47.543Z,62.3
2016-09-24T12:21:47.447Z,62.59
2016-09-24T12:22:47.552Z,63.27
2016-09-24T12:23:47.456Z,64.27
2016-09-24T12:24:47.549Z,64.53
2016-09-24T12:25:47.588Z,65.2
2016-09-24T12:26:47.560Z,65.88
2016-09-24T12:27:47.435Z,65.95
2016-09-24T12:28:47.442Z,66.14
2016-09-24T12:29:47.434Z,65.95
2016-09-24T12:30:47.584Z,65.66
2016-09-24T12:31:47.571Z,65.11
2016-09-24T12:32:47.447Z,64.53
2016-09-24T12:33:47.586Z,63.21
2016-09-24T12:34:47.486Z,61.69
2016-09-24T12:35:47.457Z,60.85
2016-09-24T12:36:47.492Z,61.3
2016-09-24T12:37:47.491Z,62.47
2016-09-24T12:38:47.453Z,63.37
2016-09-24T12:39:47.482Z,63.37
2016-09-24T12:40:47.600Z,64.14
2016-09-24T12:41:47.526Z,64.14
2016-09-24T12:42:47.633Z,64.72
2016-09-24T12:43:47.471Z,64.43
2016-09-24T12:44:47.612Z,63.11
2016-09-24T12:45:47.528Z,62.47
2016-09-24T12:46:47.626Z,62.08
2016-09-24T12:47:47.515Z,61.43
2016-09-24T12:48:47.526Z,60.3
2016-09-24T12:49:47.521Z,59.72
2016-09-24T12:50:47.507Z,60.04
2016-09-24T12:51:47.635Z,60.4
2016-09-24T12:52:47.642Z,61.15
2016-09-24T12:53:47.642Z,61.53